Time;durP1;ratioP1;P1;durP2;ratioP2;P2;SDS_P1;SDS_P2;PMS_P1;PMS_P2;Temp;Humidity;BMP_temperature;BMP_pressure;BME280_temperature;BME280_humidity;BME280_pressure;Samples;Min_cycle;Max_cycle;Signal;HPM_P1;HPM_P2
2021/12/17 00:08:35;;;;;;;3.33;1.40;;;;;;;4.24;100.00;99125.25;5085653;28;20050;-63
2021/12/17 00:11:22;;;;;;;2.42;1.20;;;;;;;4.18;100.00;99125.28;5086819;28;20066;-58
2021/12/17 00:14:07;;;;;;;3.28;1.52;;;;;;;4.09;100.00;99132.31;5083691;28;20756;-66
2021/12/17 00:17:00;;;;;;;2.13;1.27;;;;;;;4.05;100.00;99134.09;5055609;28;20063;-63
2021/12/17 00:20:09;;;;;;;1.40;1.10;;;;;;;4.03;100.00;99120.09;5068773;28;20063;-63
2021/12/17 00:49:49;;;;;;;2.17;1.33;;;;;;;4.00;100.00;99143.72;5085027;28;20581;-60
2021/12/17 00:52:36;;;;;;;1.60;1.50;;;;;;;3.95;100.00;99142.88;5052503;28;20043;-61
2021/12/17 00:55:21;;;;;;;2.72;1.38;;;;;;;3.89;100.00;99152.50;5068973;28;20055;-59
2021/12/17 00:58:06;;;;;;;;;;;;;;;3.83;100.00;99147.28;5069221;28;20051;-59
2021/12/17 01:00:51;;;;;;;3.65;1.38;;;;;;;3.84;100.00;99149.03;5083999;28;19938;-61
2021/12/17 01:03:36;;;;;;;2.67;1.40;;;;;;;3.89;100.00;99158.66;5081928;28;20090;-63
2021/12/17 01:06:21;;;;;;;2.03;1.50;;;;;;;3.78;100.00;99157.81;5083266;28;20051;-57
2021/12/17 01:09:09;;;;;;;3.70;1.55;;;;;;;3.86;100.00;99158.66;5066712;28;20055;-60
2021/12/17 01:11:57;;;;;;;3.08;1.60;;;;;;;3.87;100.00;99162.13;5068014;28;20136;-59
2021/12/17 01:15:07;;;;;;;3.35;1.40;;;;;;;3.90;100.00;99157.75;4974369;28;20081;-57
2021/12/17 01:18:38;;;;;;;4.97;1.50;;;;;;;3.76;100.00;99145.56;4902248;29;20054;-55
2021/12/17 01:21:53;;;;;;;2.33;1.58;;;;;;;3.74;100.00;99166.56;4897279;29;20083;-64
2021/12/17 01:24:52;;;;;;;2.55;1.83;;;;;;;3.69;100.00;99139.44;4896178;29;20139;-59
2021/12/17 01:43:51;;;;;;;3.58;1.67;;;;;;;3.71;100.00;99166.56;4909145;29;20532;-61
2021/12/17 01:46:38;;;;;;;5.28;1.88;;;;;;;3.76;100.00;99169.16;4898861;29;20107;-61
2021/12/17 02:01:34;;;;;;;5.95;3.70;;;;;;;3.79;100.00;99184.88;5069933;28;20072;-58
2021/12/17 02:04:20;;;;;;;6.72;3.75;;;;;;;3.97;100.00;99190.06;5054052;28;20051;-61
2021/12/17 02:07:06;;;;;;;7.07;3.92;;;;;;;3.86;100.00;99191.84;5056467;28;20459;-59
2021/12/17 02:13:09;;;;;;;3.78;2.85;;;;;;;3.92;100.00;99204.97;5003544;28;20056;-60
2021/12/17 02:31:30;;;;;;;3.00;2.10;;;;;;;3.80;100.00;99200.59;4965497;28;20585;-58
2021/12/17 02:37:08;;;;;;;5.00;1.92;;;;;;;3.64;100.00;99195.41;4966983;28;20248;-58
2021/12/17 02:46:09;;;;;;;3.20;2.20;;;;;;;3.44;100.00;99197.19;4972612;28;20592;-58
2021/12/17 02:48:54;;;;;;;3.25;2.28;;;;;;;3.45;100.00;99197.16;4985962;28;20049;-65
2021/12/17 02:51:41;;;;;;;3.10;2.35;;;;;;;3.75;100.00;99202.38;4973270;28;20524;-60
2021/12/17 02:54:26;;;;;;;3.03;2.20;;;;;;;3.80;100.00;99211.09;5004165;28;20140;-61
2021/12/17 02:57:12;;;;;;;3.05;2.15;;;;;;;3.91;100.00;99205.81;5001585;28;20096;-56
2021/12/17 02:59:58;;;;;;;3.50;2.42;;;;;;;3.88;100.00;99209.31;5018829;28;20087;-58
2021/12/17 03:02:46;;;;;;;3.30;2.30;;;;;;;3.88;100.00;99200.59;5048909;28;20523;-61
2021/12/17 03:05:33;;;;;;;4.57;2.80;;;;;;;3.87;100.00;99202.34;5077607;28;20046;-63
2021/12/17 03:08:19;;;;;;;4.22;2.85;;;;;;;3.78;100.00;99199.75;5065022;28;20086;-64
2021/12/17 03:11:04;;;;;;;3.83;2.63;;;;;;;3.82;100.00;99208.47;5083892;28;20488;-57
2021/12/17 03:13:50;;;;;;;3.33;2.75;;;;;;;3.97;100.00;99204.06;5081536;28;20176;-63
2021/12/17 03:16:41;;;;;;;5.80;2.90;;;;;;;3.78;100.00;99207.63;5085978;28;20074;-62
2021/12/17 03:25:34;;;;;;;3.50;2.70;;;;;;;3.68;100.00;99199.78;5019777;28;20076;-62
2021/12/17 03:28:19;;;;;;;3.13;2.50;;;;;;;3.80;100.00;99216.34;5004980;28;20123;-62
2021/12/17 03:31:05;;;;;;;3.58;2.38;;;;;;;3.81;100.00;99219.84;5004664;28;20052;-62
2021/12/17 03:34:07;;;;;;;3.08;2.20;;;;;;;3.80;100.00;99223.34;4992247;28;20080;-61
2021/12/17 03:36:56;;;;;;;4.15;2.70;;;;;;;3.92;100.00;99225.94;4974248;28;20052;-61
2021/12/17 03:39:40;;;;;;;4.32;2.35;;;;;;;3.88;100.00;99229.44;4974629;28;20115;-57
2021/12/17 03:42:25;;;;;;;3.53;2.50;;;;;;;3.84;100.00;99215.44;5002664;28;20060;-61
2021/12/17 03:45:10;;;;;;;4.03;2.63;;;;;;;3.84;100.00;99219.84;5012993;28;20098;-59
2021/12/17 03:48:06;;;;;;;3.85;2.75;;;;;;;3.71;100.00;99210.22;5010669;28;20053;-62
2021/12/17 03:50:51;;;;;;;3.92;2.83;;;;;;;3.86;100.00;99223.31;5009786;28;20577;-56
2021/12/17 03:53:36;;;;;;;3.45;2.55;;;;;;;3.92;100.00;99226.78;5010531;28;20052;-64
2021/12/17 03:56:24;;;;;;;5.30;2.40;;;;;;;3.98;100.00;99231.16;5004602;28;20140;-57
2021/12/17 03:59:10;;;;;;;3.88;2.67;;;;;;;3.94;100.00;99224.16;5044823;28;20561;-55
2021/12/17 04:01:57;;;;;;;4.18;2.63;;;;;;;3.97;100.00;99227.69;5065039;28;20105;-61
2021/12/17 04:04:45;;;;;;;4.25;2.63;;;;;;;3.97;100.00;99229.41;5041426;28;20058;-65
2021/12/17 04:07:49;;;;;;;4.07;2.97;;;;;;;4.03;100.00;99224.13;5075534;28;20073;-63
2021/12/17 04:11:07;;;;;;;4.03;2.97;;;;;;;3.95;100.00;99220.66;5068902;28;20086;-60
2021/12/17 04:13:57;;;;;;;5.40;2.92;;;;;;;3.79;100.00;99205.84;5045430;28;20053;-61
2021/12/17 04:16:45;;;;;;;5.18;3.28;;;;;;;3.83;100.00;99207.59;5072987;28;20051;-63
2021/12/17 04:19:29;;;;;;;5.80;3.45;;;;;;;3.70;100.00;99204.13;5067305;28;20105;-62
2021/12/17 04:22:14;;;;;;;6.28;4.38;;;;;;;3.61;100.00;99204.13;5066982;28;20856;-62
2021/12/17 04:24:59;;;;;;;6.57;3.42;;;;;;;3.44;100.00;99211.16;5069364;28;20055;-60
2021/12/17 04:27:44;;;;;;;8.35;3.70;;;;;;;3.34;100.00;99219.03;5061189;28;20587;-62
2021/12/17 04:30:30;;;;;;;5.20;4.35;;;;;;;3.44;100.00;99218.16;5071941;28;20093;-63
2021/12/17 04:33:17;;;;;;;7.22;4.47;;;;;;;3.56;100.00;99232.09;5070624;28;20121;-60
2021/12/17 04:36:02;;;;;;;5.70;4.00;;;;;;;3.40;100.00;99211.16;5062974;28;20054;-67
2021/12/17 04:38:46;;;;;;;4.93;3.58;;;;;;;3.49;100.00;99235.59;5074490;28;20446;-69
2021/12/17 04:44:29;;;;;;;7.75;4.72;;;;;;;3.36;100.00;99230.38;5085539;28;20050;-63
2021/12/17 04:59:36;;;;;;;7.25;5.03;;;;;;;3.67;100.00;99253.94;5063456;28;20051;-67
2021/12/17 05:02:20;;;;;;;6.47;4.03;;;;;;;3.73;100.00;99267.03;5082858;28;20055;-59
2021/12/17 05:05:16;;;;;;;5.35;3.35;;;;;;;3.68;100.00;99262.69;5083221;28;20062;-63
2021/12/17 05:08:12;;;;;;;6.30;3.80;;;;;;;3.78;100.00;99269.66;5063804;28;20390;-60
2021/12/17 05:20:29;;;;;;;3.00;2.53;;;;;;;3.58;100.00;99293.28;5063763;28;20059;-59
2021/12/17 05:23:25;;;;;;;;;;;;;;;3.73;100.00;99305.50;5057295;28;20066;-62
2021/12/17 05:26:16;;;;;;;3.95;2.28;;;;;;;3.67;100.00;99313.34;5064572;28;20022;-61
2021/12/17 05:29:04;;;;;;;2.83;1.60;;;;;;;3.51;100.00;99307.25;5061230;28;20112;-60
2021/12/17 05:31:58;;;;;;;1.65;1.30;;;;;;;3.43;100.00;99308.97;5062853;28;20078;-65
2021/12/17 05:34:43;;;;;;;4.68;1.70;;;;;;;3.33;100.00;99324.69;5062242;28;20110;-62
2021/12/17 05:37:30;;;;;;;2.45;1.35;;;;;;;3.28;100.00;99329.06;5064504;28;20048;-63
2021/12/17 05:40:15;;;;;;;2.42;1.45;;;;;;;3.25;100.00;99311.56;5062838;28;20071;-63
2021/12/17 05:43:04;;;;;;;2.35;1.25;;;;;;;3.29;100.00;99329.03;5064108;28;20462;-62
2021/12/17 05:48:41;;;;;;;2.53;1.30;;;;;;;3.19;100.00;99335.16;5051893;28;20109;-68
2021/12/17 05:51:26;;;;;;;2.42;1.20;;;;;;;3.14;100.00;99326.41;5064713;28;20063;-64
2021/12/17 05:54:10;;;;;;;1.20;0.63;;;;;;;3.03;100.00;99311.53;5044728;28;20071;-61
2021/12/17 05:56:55;;;;;;;0.85;0.85;;;;;;;3.17;100.00;99341.25;5051104;28;20059;-57
2021/12/17 05:59:42;;;;;;;2.03;0.98;;;;;;;3.11;100.00;99331.63;5044746;28;20865;-65
2021/12/17 06:02:27;;;;;;;1.63;0.80;;;;;;;3.27;100.00;99340.38;5043419;28;20456;-58
2021/12/17 06:05:15;;;;;;;1.42;0.98;;;;;;;3.50;100.00;99339.56;5049296;28;20083;-63
2021/12/17 06:08:04;;;;;;;2.22;1.00;;;;;;;3.61;100.00;99335.19;5034202;28;20083;-64
2021/12/17 06:10:48;;;;;;;1.77;0.90;;;;;;;3.70;100.00;99345.69;5048503;28;20083;-55
2021/12/17 06:13:33;;;;;;;1.20;1.00;;;;;;;3.66;100.00;99335.19;5062809;28;20059;-56
2021/12/17 06:16:18;;;;;;;1.17;1.08;;;;;;;3.68;100.00;99355.28;5066503;28;20214;-60
2021/12/17 06:19:04;;;;;;;1.98;1.10;;;;;;;3.51;100.00;99350.91;5050169;28;20055;-55
2021/12/17 06:21:49;;;;;;;2.15;1.05;;;;;;;3.70;100.00;99366.66;5040095;28;20103;-54
2021/12/17 06:24:34;;;;;;;1.65;1.23;;;;;;;3.67;100.00;99371.00;5049473;28;20078;-60
2021/12/17 06:27:21;;;;;;;1.48;1.23;;;;;;;3.85;100.00;99368.41;5060730;28;20067;-59
2021/12/17 06:30:10;;;;;;;1.65;1.05;;;;;;;3.79;100.00;99378.88;5062541;28;20051;-56
2021/12/17 06:32:56;;;;;;;2.03;1.20;;;;;;;3.78;100.00;99383.28;5043917;28;20132;-56
2021/12/17 06:35:45;;;;;;;2.58;1.33;;;;;;;3.83;100.00;99385.88;5059764;28;20114;-64
2021/12/17 06:38:32;;;;;;;1.77;1.10;;;;;;;3.85;100.00;99376.28;5063480;28;20079;-62
2021/12/17 06:41:17;;;;;;;4.40;1.50;;;;;;;3.81;100.00;99388.50;5046029;28;20086;-54
2021/12/17 06:44:02;;;;;;;2.65;1.17;;;;;;;3.83;100.00;99394.63;5045345;28;20055;-62
2021/12/17 06:56:54;;;;;;;1.75;1.40;;;;;;;3.87;100.00;99391.13;4973936;28;20181;-59
2021/12/17 07:10:28;;;;;;;3.10;1.60;;;;;;;4.31;100.00;99415.59;4902950;29;20067;-59
2021/12/17 07:22:46;;;;;;;6.10;2.40;;;;;;;4.29;100.00;99426.97;4906298;29;20092;-54
2021/12/17 07:40:24;;;;;;;3.75;1.90;;;;;;;4.21;100.00;99440.13;4928428;29;20078;-56
2021/12/17 07:43:13;;;;;;;2.17;1.50;;;;;;;4.15;100.00;99450.59;4967299;28;20563;-66
2021/12/17 07:46:08;;;;;;;2.30;1.58;;;;;;;4.09;100.00;99444.47;5015551;28;20059;-60
2021/12/17 07:48:53;;;;;;;3.58;1.85;;;;;;;4.14;100.00;99451.47;5065685;28;20055;-65
2021/12/17 07:51:38;;;;;;;1.95;1.35;;;;;;;4.01;100.00;99443.59;5067085;28;20129;-65
2021/12/17 07:54:25;;;;;;;3.67;1.70;;;;;;;4.02;100.00;99445.34;5068649;28;20047;-64
2021/12/17 07:57:09;;;;;;;2.63;1.60;;;;;;;4.05;100.00;99445.34;5066561;28;20128;-55
2021/12/17 07:59:57;;;;;;;1.70;1.27;;;;;;;4.21;100.00;99454.97;5067909;28;20087;-53
2021/12/17 08:02:41;;;;;;;2.03;1.40;;;;;;;4.22;100.00;99454.97;5067161;28;20193;-58
2021/12/17 08:05:46;;;;;;;1.83;1.40;;;;;;;4.20;100.00;99434.88;5064423;28;20067;-59
2021/12/17 08:08:32;;;;;;;2.08;1.42;;;;;;;4.38;100.00;99445.34;5065120;28;20047;-54
2021/12/17 08:11:39;;;;;;;1.65;1.17;;;;;;;4.47;100.00;99440.97;5069607;28;20067;-57
2021/12/17 08:14:26;;;;;;;1.77;1.20;;;;;;;4.36;100.00;99444.47;5040977;28;20093;-58
2021/12/17 08:17:53;;;;;;;1.35;1.00;;;;;;;4.26;100.00;99440.97;5072838;28;20054;-59
2021/12/17 08:27:10;;;;;;;3.70;1.77;;;;;;;4.64;100.00;99451.44;5089053;28;20109;-54
2021/12/17 08:32:12;;;;;;;5.30;1.40;;;;;;;4.75;100.00;99437.41;5072325;28;20093;-58
2021/12/17 08:35:08;;;;;;;2.05;1.50;;;;;;;4.96;100.00;99447.00;5071791;28;20047;-58
2021/12/17 08:37:54;;;;;;;3.40;1.90;;;;;;;4.98;100.00;99442.59;5068788;28;20089;-56
2021/12/17 08:40:39;;;;;;;3.20;1.90;;;;;;;5.02;100.00;99441.69;5078888;28;20105;-55
2021/12/17 08:43:25;;;;;;;6.05;2.10;;;;;;;4.87;100.00;99447.03;5085221;28;20134;-53
2021/12/17 08:46:12;;;;;;;5.47;2.30;;;;;;;4.86;100.00;99447.88;5071042;28;20042;-60
2021/12/17 08:49:16;;;;;;;4.45;2.28;;;;;;;5.07;100.00;99446.94;5071474;28;20066;-59
2021/12/17 08:52:20;;;;;;;5.90;2.63;;;;;;;5.27;100.00;99455.63;5080822;28;20074;-55
2021/12/17 08:55:06;;;;;;;4.00;2.60;;;;;;;5.37;100.00;99457.38;5071705;28;20101;-65
2021/12/17 08:57:51;;;;;;;4.50;2.67;;;;;;;5.39;100.00;99459.09;5041279;28;20123;-62
2021/12/17 09:00:37;;;;;;;5.40;3.00;;;;;;;5.46;100.00;99471.31;5089171;28;20185;-66
2021/12/17 09:03:23;;;;;;;6.05;3.13;;;;;;;5.29;100.00;99453.88;5068613;28;20047;-65
2021/12/17 09:06:18;;;;;;;;;;;;;;;5.39;100.00;99456.47;5053110;28;20083;-64
2021/12/17 09:09:06;;;;;;;5.10;2.58;;;;;;;5.26;100.00;99460.00;5051126;28;19931;-63
2021/12/17 09:11:52;;;;;;;3.92;2.53;;;;;;;5.33;100.00;99463.50;5051481;28;20093;-60
2021/12/17 09:14:50;;;;;;;4.03;2.58;;;;;;;5.41;100.00;99473.09;5070639;28;20051;-57
2021/12/17 09:17:54;;;;;;;4.63;2.67;;;;;;;5.51;100.00;99466.94;5086204;28;20565;-57
2021/12/17 09:20:43;;;;;;;4.20;2.42;;;;;;;5.52;100.00;99467.78;5067590;28;20115;-59
2021/12/17 09:23:29;;;;;;;3.03;2.40;;;;;;;5.56;100.00;99474.78;5072245;28;20047;-55
2021/12/17 09:26:16;;;;;;;5.53;2.30;;;;;;;5.61;100.00;99468.63;5088037;28;20096;-64
2021/12/17 09:29:02;;;;;;;3.30;2.25;;;;;;;5.66;100.00;99477.34;5070176;28;20050;-62
2021/12/17 09:31:47;;;;;;;4.72;2.42;;;;;;;5.57;100.00;99480.03;5087479;28;20058;-60
2021/12/17 09:34:32;;;;;;;4.93;2.53;;;;;;;5.55;100.00;99475.66;5056547;28;20090;-56
2021/12/17 09:37:17;;;;;;;6.97;3.10;;;;;;;5.64;100.00;99476.50;5087779;28;20109;-61
2021/12/17 09:40:06;;;;;;;6.85;3.47;;;;;;;5.70;100.00;99467.69;5074039;22;20807;-63
2021/12/17 09:42:50;;;;;;;7.18;3.20;;;;;;;5.69;100.00;99469.44;5047624;28;20553;-68
2021/12/17 09:45:34;;;;;;;5.00;3.10;;;;;;;5.72;100.00;99460.66;5047869;28;20056;-62
2021/12/17 09:48:20;;;;;;;6.32;3.38;;;;;;;5.78;100.00;99465.91;5033541;28;20047;-56
2021/12/17 09:51:08;;;;;;;6.10;3.78;;;;;;;5.76;100.00;99465.91;5044885;28;20110;-55
2021/12/17 09:53:52;;;;;;;7.65;4.32;;;;;;;5.80;100.00;99470.25;5051210;28;20054;-61
2021/12/17 09:56:37;;;;;;;7.43;4.75;;;;;;;5.79;100.00;99472.91;5052784;28;20190;-64
2021/12/17 09:59:22;;;;;;;6.63;4.10;;;;;;;5.79;100.00;99476.41;5037283;28;20048;-60
2021/12/17 10:02:06;;;;;;;5.90;3.70;;;;;;;5.87;100.00;99468.50;5048487;28;20089;-65
2021/12/17 10:04:54;;;;;;;5.32;3.22;;;;;;;5.96;100.00;99477.22;5064984;28;20047;-57
2021/12/17 10:07:41;;;;;;;4.40;3.30;;;;;;;5.99;100.00;99479.84;5034457;28;20119;-58
2021/12/17 10:10:35;;;;;;;7.32;4.00;;;;;;;5.84;100.00;99490.44;5048955;28;20059;-62
2021/12/17 10:13:25;;;;;;;8.80;3.67;;;;;;;5.79;100.00;99491.31;5066466;28;20074;-57
2021/12/17 10:16:12;;;;;;;4.95;3.03;;;;;;;5.86;100.00;99488.69;5049975;28;20063;-57
2021/12/17 10:18:56;;;;;;;6.18;3.60;;;;;;;5.91;100.00;99489.53;5065141;28;20055;-58
2021/12/17 10:21:46;;;;;;;5.97;2.90;;;;;;;5.88;100.00;99486.91;5067017;28;20063;-67
2021/12/17 10:24:30;;;;;;;5.40;3.30;;;;;;;6.04;100.00;99492.94;5049470;28;20535;-59
2021/12/17 10:27:25;;;;;;;4.90;3.47;;;;;;;6.08;100.00;99495.56;5063289;28;20117;-58
2021/12/17 10:30:12;;;;;;;6.20;3.37;;;;;;;5.95;100.00;99487.75;5049240;28;20056;-59
2021/12/17 10:33:00;;;;;;;5.95;3.03;;;;;;;5.98;100.00;99496.50;5051093;28;20950;-63
2021/12/17 10:35:48;;;;;;;4.68;2.60;;;;;;;5.96;100.00;99493.00;5073291;28;20055;-65
2021/12/17 10:38:34;;;;;;;8.10;2.72;;;;;;;5.86;100.00;99498.34;5053567;28;20051;-68
2021/12/17 10:41:26;;;;;;;5.10;2.90;;;;;;;6.01;100.00;99495.63;5070969;28;20438;-61
2021/12/17 10:44:11;;;;;;;4.80;2.92;;;;;;;5.96;100.00;99506.16;5054806;28;20154;-66
2021/12/17 10:47:32;;;;;;;6.28;2.63;;;;;;;5.77;100.00;99495.72;5060304;28;20410;-64
2021/12/17 10:50:24;;;;;;;4.82;2.97;;;;;;;5.94;100.00;99513.22;5066267;28;20102;-71
2021/12/17 10:53:09;;;;;;;4.10;2.90;;;;;;;5.89;100.00;99512.34;5044786;28;20071;-62
2021/12/17 10:55:55;;;;;;;5.73;3.00;;;;;;;5.96;100.00;99514.06;5063549;28;20062;-62
2021/12/17 10:58:56;;;;;;;7.20;2.75;;;;;;;6.02;100.00;99505.25;5045344;28;20047;-64
2021/12/17 11:01:49;;;;;;;3.70;2.70;;;;;;;5.84;100.00;99507.97;5049855;28;20147;-64
2021/12/17 11:04:40;;;;;;;4.13;3.20;;;;;;;5.60;100.00;99519.47;5050835;28;20058;-64
2021/12/17 11:07:25;;;;;;;4.18;2.80;;;;;;;5.27;100.00;99509.09;5047642;28;20204;-70
2021/12/17 11:10:09;;;;;;;6.53;3.08;;;;;;;5.40;100.00;99517.78;5036520;28;20118;-63
2021/12/17 11:12:54;;;;;;;5.72;2.95;;;;;;;5.36;100.00;99521.31;5033579;28;20047;-63
2021/12/17 11:15:38;;;;;;;7.40;3.38;;;;;;;5.25;100.00;99516.09;5039871;28;20062;-62
2021/12/17 11:18:25;;;;;;;5.35;3.42;;;;;;;5.29;100.00;99522.22;5065608;28;20059;-62
2021/12/17 11:21:13;;;;;;;5.05;3.58;;;;;;;5.17;100.00;99530.16;5049544;28;20101;-67
2021/12/17 11:24:00;;;;;;;5.13;2.97;;;;;;;5.27;100.00;99531.84;5064565;28;20059;-69
2021/12/17 11:26:46;;;;;;;5.18;3.40;;;;;;;5.28;100.00;99530.97;5017998;28;20127;-69
2021/12/17 11:29:31;;;;;;;3.67;3.00;;;;;;;5.04;100.00;99537.19;5064582;28;20052;-69
2021/12/17 11:32:18;;;;;;;5.07;3.25;;;;;;;5.00;100.00;99536.28;5065250;28;20072;-66
2021/12/17 11:35:05;;;;;;;4.95;3.00;;;;;;;5.06;100.00;99543.28;5047558;28;20047;-71
2021/12/17 11:37:58;;;;;;;4.65;3.05;;;;;;;5.04;100.00;99537.19;5047832;28;20093;-68
2021/12/17 11:40:54;;;;;;;6.70;2.75;;;;;;;5.00;100.00;99538.06;5061414;28;20125;-66
2021/12/17 11:43:39;;;;;;;;;;;;;;;4.87;100.00;99528.44;5066440;28;20420;-67
2021/12/17 11:46:31;;;;;;;6.25;3.00;;;;;;;4.63;100.00;99537.22;5048848;28;20366;-65
2021/12/17 11:49:17;;;;;;;5.22;3.10;;;;;;;4.74;100.00;99524.94;5048562;28;20090;-64
2021/12/17 11:52:03;;;;;;;5.47;3.30;;;;;;;4.62;100.00;99538.09;5062870;28;20051;-66
2021/12/17 11:54:47;;;;;;;6.13;3.65;;;;;;;4.40;100.00;99541.56;5067950;28;20051;-66
2021/12/17 11:57:42;;;;;;;5.63;3.50;;;;;;;4.57;100.00;99541.59;5049496;28;20514;-68
2021/12/17 12:00:47;;;;;;;5.15;3.13;;;;;;;4.64;100.00;99546.81;5047317;28;20047;-66
2021/12/17 12:03:32;;;;;;;6.50;3.53;;;;;;;4.56;100.00;99543.31;5062508;28;20490;-69
2021/12/17 12:06:35;;;;;;;7.15;3.50;;;;;;;4.71;100.00;99551.22;5048040;28;20182;-70
2021/12/17 12:09:54;;;;;;;6.43;3.67;;;;;;;4.73;100.00;99551.22;5064389;28;20086;-67
2021/12/17 12:12:40;;;;;;;7.32;3.55;;;;;;;4.76;100.00;99554.69;5048165;28;20121;-69
2021/12/17 12:15:31;;;;;;;10.07;4.03;;;;;;;4.64;100.00;99556.47;5053165;28;20067;-69
2021/12/17 12:18:41;;;;;;;8.50;3.28;;;;;;;4.68;100.00;99559.06;5040534;28;20051;-68
2021/12/17 12:21:34;;;;;;;8.15;3.40;;;;;;;4.63;100.00;99557.34;5053033;28;20074;-69
2021/12/17 12:24:19;;;;;;;7.78;3.15;;;;;;;4.67;100.00;99559.09;5053498;28;20055;-70
2021/12/17 12:27:05;;;;;;;5.40;2.88;;;;;;;4.61;100.00;99561.72;5053170;28;20102;-69
2021/12/17 12:29:56;;;;;;;5.30;3.55;;;;;;;4.64;100.00;99561.72;5065872;28;20700;-68
2021/12/17 12:33:08;;;;;;;4.80;3.28;;;;;;;4.65;100.00;99571.34;5068064;28;20048;-71
2021/12/17 12:35:57;;;;;;;8.85;3.65;;;;;;;4.66;100.00;99575.72;5052233;28;20551;-72
2021/12/17 12:38:41;;;;;;;5.30;2.78;;;;;;;4.70;100.00;99570.47;5053598;28;20051;-67
2021/12/17 12:41:28;;;;;;;6.82;2.42;;;;;;;4.74;100.00;99582.72;5052041;28;20050;-68
2021/12/17 12:44:12;;;;;;;6.53;2.50;;;;;;;4.80;100.00;99566.09;5052714;28;20059;-66
2021/12/17 12:46:57;;;;;;;9.35;3.10;;;;;;;4.74;100.00;99580.09;5065122;28;20059;-65
2021/12/17 12:49:46;;;;;;;8.40;2.60;;;;;;;4.76;100.00;99586.22;5051992;28;20055;-68
2021/12/17 12:52:31;;;;;;;4.85;2.75;;;;;;;4.65;100.00;99597.59;5065113;28;20067;-64
2021/12/17 12:55:21;;;;;;;4.93;3.00;;;;;;;4.72;100.00;99597.59;5052481;28;20131;-62
2021/12/17 12:58:07;;;;;;;8.30;2.92;;;;;;;4.63;100.00;99592.34;5035765;28;20086;-64
2021/12/17 13:00:57;;;;;;;6.00;2.78;;;;;;;4.74;100.00;99598.47;5048506;28;20087;-61
2021/12/17 13:03:42;;;;;;;8.07;3.40;;;;;;;4.77;100.00;99595.88;5066182;28;20119;-64
2021/12/17 13:06:27;;;;;;;8.00;2.65;;;;;;;4.76;100.00;99583.59;5077865;28;20453;-59
2021/12/17 13:09:11;;;;;;;5.82;3.33;;;;;;;4.72;100.00;99594.97;5072601;28;20051;-74
2021/12/17 13:11:55;;;;;;;7.28;3.35;;;;;;;4.85;100.00;99609.00;5064089;28;20055;-64
2021/12/17 13:14:46;;;;;;;5.22;3.00;;;;;;;4.73;100.00;99609.00;5048571;28;20047;-64
2021/12/17 13:20:14;;;;;;;6.80;2.50;;;;;;;4.64;100.00;99609.00;5039280;28;20099;-62
2021/12/17 13:24:05;;;;;;;4.75;2.22;;;;;;;4.49;100.00;99604.59;5062648;28;20083;-63
2021/12/17 13:27:09;;;;;;;3.65;2.10;;;;;;;4.25;100.00;99608.91;5056892;28;20067;-69
2021/12/17 13:29:58;;;;;;;6.03;2.28;;;;;;;4.34;100.00;99619.44;5046489;28;20052;-64
2021/12/17 13:32:43;;;;;;;5.82;2.78;;;;;;;4.46;100.00;99619.44;5064647;28;20094;-68
2021/12/17 13:35:33;;;;;;;;;;;;;;;4.46;100.00;99622.06;5044781;28;20103;-61
2021/12/17 13:38:18;;;;;;;6.53;2.85;;;;;;;4.47;100.00;99623.81;5059609;28;19946;-65
2021/12/17 13:41:09;;;;;;;7.40;2.55;;;;;;;4.54;100.00;99630.84;5029169;28;20052;-64
2021/12/17 13:43:55;;;;;;;5.45;2.30;;;;;;;4.61;100.00;99629.97;5026382;28;20062;-64
2021/12/17 13:46:39;;;;;;;7.20;2.65;;;;;;;4.66;100.00;99638.72;5029676;28;20113;-69
2021/12/17 13:49:24;;;;;;;3.83;2.50;;;;;;;4.46;100.00;99620.34;5042702;28;20419;-66
2021/12/17 13:52:09;;;;;;;3.28;2.15;;;;;;;4.69;100.00;99644.00;5042637;28;20060;-64
2021/12/17 13:54:57;;;;;;;5.13;2.28;;;;;;;4.72;100.00;99646.63;5028977;28;20064;-64
2021/12/17 13:57:43;;;;;;;4.75;2.55;;;;;;;4.75;100.00;99647.50;5028300;28;20048;-63
2021/12/17 14:00:36;;;;;;;6.72;2.58;;;;;;;4.68;100.00;99650.13;5038322;28;20083;-66
2021/12/17 14:03:28;;;;;;;5.70;2.88;;;;;;;4.56;100.00;99650.97;5036823;28;20056;-63
2021/12/17 14:06:24;;;;;;;4.40;2.38;;;;;;;4.52;100.00;99650.97;5022771;28;20195;-70
2021/12/17 14:09:08;;;;;;;5.57;2.88;;;;;;;4.44;100.00;99655.34;5014543;28;20090;-67
2021/12/17 14:11:53;;;;;;;4.57;2.70;;;;;;;4.53;100.00;99645.72;5043541;28;20052;-64
2021/12/17 14:14:37;;;;;;;7.07;2.70;;;;;;;4.59;100.00;99644.88;5040263;28;20060;-62
2021/12/17 14:17:21;;;;;;;12.60;5.03;;;;;;;4.52;100.00;99653.59;5041075;28;20059;-62
2021/12/17 14:20:10;;;;;;;77.37;27.07;;;;;;;4.41;100.00;99661.47;5028496;28;20059;-66
2021/12/17 14:23:00;;;;;;;56.90;19.95;;;;;;;4.24;100.00;99660.50;5046488;28;20187;-64
2021/12/17 14:25:57;;;;;;;31.08;11.05;;;;;;;4.19;100.00;99671.84;5018210;28;20547;-64
2021/12/17 14:28:41;;;;;;;30.63;11.05;;;;;;;4.26;100.00;99677.16;5042802;28;20151;-64
2021/12/17 14:31:30;;;;;;;42.28;15.70;;;;;;;4.24;100.00;99673.63;5030339;28;20059;-64
2021/12/17 14:34:18;;;;;;;24.05;9.63;;;;;;;4.12;100.00;99675.34;5045970;28;20047;-66
2021/12/17 14:37:03;;;;;;;24.90;8.57;;;;;;;4.01;100.00;99679.66;5027026;28;20524;-63
2021/12/17 14:39:49;;;;;;;32.63;12.68;;;;;;;4.14;100.00;99681.47;5033695;28;20467;-66
2021/12/17 14:42:36;;;;;;;28.33;12.27;;;;;;;3.96;100.00;99673.53;5040882;28;20274;-65
2021/12/17 14:45:33;;;;;;;28.75;12.00;;;;;;;4.21;100.00;99680.63;5008828;28;20136;-63
2021/12/17 14:48:22;;;;;;;22.77;8.82;;;;;;;4.40;100.00;99680.69;5026189;28;20051;-64
2021/12/17 15:03:02;;;;;;;7.40;4.03;;;;;;;4.49;100.00;99690.34;5026691;28;20080;-64
2021/12/17 15:05:47;;;;;;;7.93;4.10;;;;;;;4.40;100.00;99687.69;5028440;28;20064;-71
2021/12/17 15:08:34;;;;;;;8.77;4.75;;;;;;;4.45;100.00;99691.19;5042929;28;20094;-63
2021/12/17 15:11:28;;;;;;;12.25;7.20;;;;;;;4.39;100.00;99699.03;5036199;28;20211;-62
2021/12/17 15:14:12;;;;;;;13.30;8.48;;;;;;;4.34;100.00;99703.41;5025398;28;20052;-65
2021/12/17 15:16:57;;;;;;;11.50;6.88;;;;;;;4.38;100.00;99711.31;5032803;28;20095;-65
2021/12/17 15:19:41;;;;;;;10.50;6.18;;;;;;;4.21;100.00;99710.38;5042557;28;20063;-67
2021/12/17 15:22:27;;;;;;;8.95;5.03;;;;;;;4.19;100.00;99717.34;5041858;28;20103;-63
2021/12/17 15:25:13;;;;;;;9.98;5.90;;;;;;;4.24;100.00;99720.00;5036920;28;20088;-64
2021/12/17 15:27:59;;;;;;;15.95;10.00;;;;;;;4.02;100.00;99718.13;5042166;28;20099;-69
2021/12/17 15:30:48;;;;;;;25.98;11.98;;;;;;;3.98;100.00;99725.13;5037330;28;20076;-67
2021/12/17 15:33:36;;;;;;;30.48;13.85;;;;;;;3.93;100.00;99728.59;5038916;28;20071;-63
2021/12/17 15:36:20;;;;;;;8.30;3.45;;;;;;;3.91;100.00;99731.19;5024048;28;20072;-65
2021/12/17 15:39:07;;;;;;;9.15;3.10;;;;;;;4.00;100.00;99725.13;5044447;28;20732;-63
2021/12/17 15:41:53;;;;;;;5.65;2.92;;;;;;;4.05;100.00;99728.66;5052211;28;20479;-66
2021/12/17 15:44:37;;;;;;;10.18;5.18;;;;;;;4.05;100.00;99723.41;5033379;28;20063;-65
2021/12/17 15:47:22;;;;;;;17.05;9.45;;;;;;;4.03;100.00;99723.41;5048931;28;20102;-64
2021/12/17 15:50:10;;;;;;;13.40;7.15;;;;;;;4.03;100.00;99726.03;5046688;28;20063;-66
2021/12/17 15:52:55;;;;;;;10.95;5.85;;;;;;;4.01;100.00;99727.78;5044341;28;20048;-66
2021/12/17 15:55:40;;;;;;;9.63;5.03;;;;;;;4.03;100.00;99730.38;5087758;28;20094;-67
2021/12/17 15:58:25;;;;;;;7.00;3.72;;;;;;;4.11;100.00;99733.91;5062777;28;20523;-65
2021/12/17 16:01:10;;;;;;;6.95;3.78;;;;;;;4.13;100.00;99732.19;5063065;28;20051;-67
2021/12/17 16:03:56;;;;;;;10.05;4.13;;;;;;;4.11;100.00;99733.91;5039691;28;20194;-65
2021/12/17 16:06:41;;;;;;;6.85;4.15;;;;;;;4.01;100.00;99726.88;5033673;28;20130;-73
2021/12/17 16:21:17;;;;;;;3.08;1.77;;;;;;;3.79;100.00;99741.63;5043754;28;20185;-69
2021/12/17 16:24:02;;;;;;;3.13;1.88;;;;;;;3.72;100.00;99739.81;5026245;28;20845;-64
2021/12/17 16:26:47;;;;;;;3.60;2.03;;;;;;;3.60;100.00;99746.75;5088817;28;20058;-65
2021/12/17 16:29:32;;;;;;;4.65;2.70;;;;;;;3.77;100.00;99748.56;5040941;28;20084;-59
2021/12/17 16:32:16;;;;;;;6.15;2.72;;;;;;;3.83;100.00;99748.63;5034079;28;20051;-64
2021/12/17 16:35:02;;;;;;;3.75;2.33;;;;;;;3.85;100.00;99744.28;5063012;28;20412;-62
2021/12/17 16:37:49;;;;;;;4.05;2.00;;;;;;;4.00;100.00;99754.00;5053762;28;20052;-70
2021/12/17 16:40:34;;;;;;;4.38;1.90;;;;;;;3.81;100.00;99750.34;5056864;28;20114;-64